sensor_id;sensor_type;location;lat;lon;timestamp;P1;durP1;ratioP1;P2;durP2;ratioP2
75698;SDS011;64313;51.018;13.742;2022-10-16T00:01:32;10.75;;;6.90;;
75698;SDS011;64313;51.018;13.742;2022-10-16T00:03:59;11.40;;;6.95;;
75698;SDS011;64313;51.018;13.742;2022-10-16T00:06:25;11.20;;;6.95;;
75698;SDS011;64313;51.018;13.742;2022-10-16T00:08:51;10.80;;;6.85;;
75698;SDS011;64313;51.018;13.742;2022-10-16T00:13:47;11.70;;;7.13;;
75698;SDS011;64313;51.018;13.742;2022-10-16T00:16:14;11.93;;;6.70;;
75698;SDS011;64313;51.018;13.742;2022-10-16T00:18:40;10.75;;;6.32;;
75698;SDS011;64313;51.018;13.742;2022-10-16T00:21:08;9.68;;;6.53;;
75698;SDS011;64313;51.018;13.742;2022-10-16T00:23:38;10.90;;;6.80;;
75698;SDS011;64313;51.018;13.742;2022-10-16T00:26:05;10.85;;;6.78;;
75698;SDS011;64313;51.018;13.742;2022-10-16T00:28:32;10.15;;;6.63;;
75698;SDS011;64313;51.018;13.742;2022-10-16T00:30:58;9.75;;;6.18;;
75698;SDS011;64313;51.018;13.742;2022-10-16T00:33:23;9.98;;;5.97;;
75698;SDS011;64313;51.018;13.742;2022-10-16T00:35:49;9.60;;;6.38;;
75698;SDS011;64313;51.018;13.742;2022-10-16T00:38:15;10.52;;;5.85;;
75698;SDS011;64313;51.018;13.742;2022-10-16T00:40:40;9.82;;;6.03;;
75698;SDS011;64313;51.018;13.742;2022-10-16T00:43:11;9.57;;;6.00;;
75698;SDS011;64313;51.018;13.742;2022-10-16T00:45:39;8.43;;;5.43;;
75698;SDS011;64313;51.018;13.742;2022-10-16T00:48:06;10.20;;;6.20;;
75698;SDS011;64313;51.018;13.742;2022-10-16T00:50:36;8.52;;;5.72;;
75698;SDS011;64313;51.018;13.742;2022-10-16T00:53:02;9.27;;;5.20;;
75698;SDS011;64313;51.018;13.742;2022-10-16T00:55:28;9.40;;;6.53;;
75698;SDS011;64313;51.018;13.742;2022-10-16T00:57:55;8.95;;;5.85;;
75698;SDS011;64313;51.018;13.742;2022-10-16T01:00:23;8.75;;;5.65;;
75698;SDS011;64313;51.018;13.742;2022-10-16T01:02:54;11.60;;;5.72;;
75698;SDS011;64313;51.018;13.742;2022-10-16T01:05:21;11.32;;;6.45;;
75698;SDS011;64313;51.018;13.742;2022-10-16T01:10:38;9.77;;;5.60;;
75698;SDS011;64313;51.018;13.742;2022-10-16T01:13:10;9.90;;;5.50;;
75698;SDS011;64313;51.018;13.742;2022-10-16T01:15:54;8.50;;;5.80;;
75698;SDS011;64313;51.018;13.742;2022-10-16T01:18:34;9.38;;;4.70;;
75698;SDS011;64313;51.018;13.742;2022-10-16T01:21:05;9.27;;;5.10;;
75698;SDS011;64313;51.018;13.742;2022-10-16T01:28:55;9.57;;;5.25;;
75698;SDS011;64313;51.018;13.742;2022-10-16T01:31:26;8.82;;;5.28;;
75698;SDS011;64313;51.018;13.742;2022-10-16T01:34:00;9.32;;;5.70;;
75698;SDS011;64313;51.018;13.742;2022-10-16T01:36:35;8.82;;;5.82;;
75698;SDS011;64313;51.018;13.742;2022-10-16T01:39:04;9.45;;;5.88;;
75698;SDS011;64313;51.018;13.742;2022-10-16T01:41:35;9.55;;;6.13;;
75698;SDS011;64313;51.018;13.742;2022-10-16T01:44:08;8.45;;;5.65;;
75698;SDS011;64313;51.018;13.742;2022-10-16T01:46:47;7.85;;;5.50;;
75698;SDS011;64313;51.018;13.742;2022-10-16T01:49:16;9.30;;;5.68;;
75698;SDS011;64313;51.018;13.742;2022-10-16T01:51:43;8.65;;;5.65;;
75698;SDS011;64313;51.018;13.742;2022-10-16T01:54:12;8.98;;;5.13;;
75698;SDS011;64313;51.018;13.742;2022-10-16T01:56:39;7.65;;;5.03;;
75698;SDS011;64313;51.018;13.742;2022-10-16T01:59:07;8.27;;;4.93;;
75698;SDS011;64313;51.018;13.742;2022-10-16T02:01:36;8.18;;;5.50;;
75698;SDS011;64313;51.018;13.742;2022-10-16T02:04:09;9.65;;;5.35;;
75698;SDS011;64313;51.018;13.742;2022-10-16T02:06:40;8.48;;;5.43;;
75698;SDS011;64313;51.018;13.742;2022-10-16T02:09:05;7.20;;;4.57;;
75698;SDS011;64313;51.018;13.742;2022-10-16T02:11:31;7.97;;;4.97;;
75698;SDS011;64313;51.018;13.742;2022-10-16T02:14:06;8.13;;;5.20;;
75698;SDS011;64313;51.018;13.742;2022-10-16T02:16:32;8.00;;;5.03;;
75698;SDS011;64313;51.018;13.742;2022-10-16T02:19:03;6.90;;;4.78;;
75698;SDS011;64313;51.018;13.742;2022-10-16T02:21:31;7.40;;;4.72;;
75698;SDS011;64313;51.018;13.742;2022-10-16T02:24:17;6.50;;;4.50;;
75698;SDS011;64313;51.018;13.742;2022-10-16T02:26:51;7.40;;;4.93;;
75698;SDS011;64313;51.018;13.742;2022-10-16T02:31:50;9.82;;;4.72;;
75698;SDS011;64313;51.018;13.742;2022-10-16T02:34:25;7.60;;;4.78;;
75698;SDS011;64313;51.018;13.742;2022-10-16T02:36:52;7.10;;;4.82;;
75698;SDS011;64313;51.018;13.742;2022-10-16T02:39:19;7.43;;;4.70;;
75698;SDS011;64313;51.018;13.742;2022-10-16T02:41:45;7.57;;;4.88;;
75698;SDS011;64313;51.018;13.742;2022-10-16T02:44:11;7.60;;;5.00;;
75698;SDS011;64313;51.018;13.742;2022-10-16T02:46:36;8.07;;;4.80;;
75698;SDS011;64313;51.018;13.742;2022-10-16T02:49:01;8.32;;;5.90;;
75698;SDS011;64313;51.018;13.742;2022-10-16T02:51:27;8.47;;;5.60;;
75698;SDS011;64313;51.018;13.742;2022-10-16T02:53:52;7.33;;;5.00;;
75698;SDS011;64313;51.018;13.742;2022-10-16T02:56:17;9.73;;;5.25;;
75698;SDS011;64313;51.018;13.742;2022-10-16T02:58:42;7.85;;;5.22;;
75698;SDS011;64313;51.018;13.742;2022-10-16T03:01:08;8.30;;;5.13;;
75698;SDS011;64313;51.018;13.742;2022-10-16T03:03:33;8.18;;;5.43;;
75698;SDS011;64313;51.018;13.742;2022-10-16T03:05:58;7.30;;;5.10;;
75698;SDS011;64313;51.018;13.742;2022-10-16T03:08:24;7.75;;;5.10;;
75698;SDS011;64313;51.018;13.742;2022-10-16T03:10:50;8.10;;;5.40;;
75698;SDS011;64313;51.018;13.742;2022-10-16T03:13:16;8.55;;;5.18;;
75698;SDS011;64313;51.018;13.742;2022-10-16T03:15:41;8.13;;;5.07;;
75698;SDS011;64313;51.018;13.742;2022-10-16T03:18:06;8.15;;;5.50;;
75698;SDS011;64313;51.018;13.742;2022-10-16T03:20:32;7.90;;;5.35;;
75698;SDS011;64313;51.018;13.742;2022-10-16T03:22:57;7.55;;;4.97;;
75698;SDS011;64313;51.018;13.742;2022-10-16T03:25:22;8.20;;;5.47;;
75698;SDS011;64313;51.018;13.742;2022-10-16T03:27:48;7.97;;;4.90;;
75698;SDS011;64313;51.018;13.742;2022-10-16T03:30:13;7.73;;;5.37;;
75698;SDS011;64313;51.018;13.742;2022-10-16T03:32:39;10.38;;;5.25;;
75698;SDS011;64313;51.018;13.742;2022-10-16T03:35:04;7.70;;;5.03;;
75698;SDS011;64313;51.018;13.742;2022-10-16T03:37:29;7.90;;;5.15;;
75698;SDS011;64313;51.018;13.742;2022-10-16T03:39:55;7.90;;;5.00;;
75698;SDS011;64313;51.018;13.742;2022-10-16T03:42:20;7.82;;;5.25;;
75698;SDS011;64313;51.018;13.742;2022-10-16T03:44:45;7.95;;;5.00;;
75698;SDS011;64313;51.018;13.742;2022-10-16T03:47:11;6.97;;;4.67;;
75698;SDS011;64313;51.018;13.742;2022-10-16T03:49:36;9.87;;;5.90;;
75698;SDS011;64313;51.018;13.742;2022-10-16T03:52:01;9.50;;;6.47;;
75698;SDS011;64313;51.018;13.742;2022-10-16T03:54:26;8.40;;;5.68;;
75698;SDS011;64313;51.018;13.742;2022-10-16T03:56:52;7.57;;;4.70;;
75698;SDS011;64313;51.018;13.742;2022-10-16T03:59:17;9.65;;;6.15;;
75698;SDS011;64313;51.018;13.742;2022-10-16T04:01:42;10.93;;;5.78;;
75698;SDS011;64313;51.018;13.742;2022-10-16T04:04:08;8.90;;;6.10;;
75698;SDS011;64313;51.018;13.742;2022-10-16T04:06:33;8.88;;;6.10;;
75698;SDS011;64313;51.018;13.742;2022-10-16T04:08:58;9.60;;;6.37;;
75698;SDS011;64313;51.018;13.742;2022-10-16T04:11:24;10.27;;;6.45;;
75698;SDS011;64313;51.018;13.742;2022-10-16T04:13:49;9.00;;;6.38;;
75698;SDS011;64313;51.018;13.742;2022-10-16T04:16:14;9.40;;;6.38;;
75698;SDS011;64313;51.018;13.742;2022-10-16T04:18:39;9.20;;;6.03;;
75698;SDS011;64313;51.018;13.742;2022-10-16T04:21:05;9.38;;;6.45;;
75698;SDS011;64313;51.018;13.742;2022-10-16T04:23:31;8.52;;;6.00;;
75698;SDS011;64313;51.018;13.742;2022-10-16T04:25:57;9.10;;;6.35;;
75698;SDS011;64313;51.018;13.742;2022-10-16T04:28:22;9.23;;;5.90;;
75698;SDS011;64313;51.018;13.742;2022-10-16T04:30:47;8.23;;;5.70;;
75698;SDS011;64313;51.018;13.742;2022-10-16T04:33:13;9.10;;;5.65;;
75698;SDS011;64313;51.018;13.742;2022-10-16T04:35:38;8.23;;;5.35;;
75698;SDS011;64313;51.018;13.742;2022-10-16T04:38:03;8.80;;;5.97;;
75698;SDS011;64313;51.018;13.742;2022-10-16T04:40:29;9.18;;;6.05;;
75698;SDS011;64313;51.018;13.742;2022-10-16T04:42:57;9.90;;;6.63;;
75698;SDS011;64313;51.018;13.742;2022-10-16T04:45:23;8.88;;;6.32;;
75698;SDS011;64313;51.018;13.742;2022-10-16T04:47:48;8.90;;;6.25;;
75698;SDS011;64313;51.018;13.742;2022-10-16T04:50:14;9.65;;;6.20;;
75698;SDS011;64313;51.018;13.742;2022-10-16T04:52:39;9.23;;;6.18;;
75698;SDS011;64313;51.018;13.742;2022-10-16T04:55:05;8.23;;;5.88;;
75698;SDS011;64313;51.018;13.742;2022-10-16T04:57:30;9.57;;;6.28;;
75698;SDS011;64313;51.018;13.742;2022-10-16T04:59:55;9.00;;;5.97;;
75698;SDS011;64313;51.018;13.742;2022-10-16T05:02:21;10.13;;;6.85;;
75698;SDS011;64313;51.018;13.742;2022-10-16T05:04:46;8.85;;;6.15;;
75698;SDS011;64313;51.018;13.742;2022-10-16T05:07:12;8.20;;;5.97;;
75698;SDS011;64313;51.018;13.742;2022-10-16T05:09:37;8.52;;;5.93;;
75698;SDS011;64313;51.018;13.742;2022-10-16T05:12:02;8.73;;;5.78;;
75698;SDS011;64313;51.018;13.742;2022-10-16T05:14:28;8.77;;;6.07;;
75698;SDS011;64313;51.018;13.742;2022-10-16T05:16:54;8.40;;;5.90;;
75698;SDS011;64313;51.018;13.742;2022-10-16T05:19:19;9.60;;;5.83;;
75698;SDS011;64313;51.018;13.742;2022-10-16T05:21:44;9.63;;;5.72;;
75698;SDS011;64313;51.018;13.742;2022-10-16T05:24:09;8.53;;;5.87;;
75698;SDS011;64313;51.018;13.742;2022-10-16T05:26:35;7.93;;;5.50;;
75698;SDS011;64313;51.018;13.742;2022-10-16T05:29:00;8.40;;;5.73;;
75698;SDS011;64313;51.018;13.742;2022-10-16T05:31:25;9.48;;;6.45;;
75698;SDS011;64313;51.018;13.742;2022-10-16T05:33:51;9.18;;;6.05;;
75698;SDS011;64313;51.018;13.742;2022-10-16T05:36:16;10.83;;;6.70;;
75698;SDS011;64313;51.018;13.742;2022-10-16T05:38:43;8.85;;;6.32;;
75698;SDS011;64313;51.018;13.742;2022-10-16T05:41:08;8.93;;;6.40;;
75698;SDS011;64313;51.018;13.742;2022-10-16T05:43:33;9.40;;;6.57;;
75698;SDS011;64313;51.018;13.742;2022-10-16T05:46:00;8.77;;;6.07;;
75698;SDS011;64313;51.018;13.742;2022-10-16T05:48:27;9.60;;;6.60;;
75698;SDS011;64313;51.018;13.742;2022-10-16T05:50:56;8.93;;;6.30;;
75698;SDS011;64313;51.018;13.742;2022-10-16T05:53:26;9.60;;;6.78;;
75698;SDS011;64313;51.018;13.742;2022-10-16T05:55:53;9.70;;;6.60;;
75698;SDS011;64313;51.018;13.742;2022-10-16T05:58:19;9.30;;;5.93;;
75698;SDS011;64313;51.018;13.742;2022-10-16T06:00:44;11.05;;;6.20;;
75698;SDS011;64313;51.018;13.742;2022-10-16T06:03:09;10.73;;;6.07;;
75698;SDS011;64313;51.018;13.742;2022-10-16T06:05:35;10.27;;;6.50;;
75698;SDS011;64313;51.018;13.742;2022-10-16T06:08:00;9.87;;;5.93;;
75698;SDS011;64313;51.018;13.742;2022-10-16T06:10:25;9.83;;;6.40;;
75698;SDS011;64313;51.018;13.742;2022-10-16T06:12:50;8.47;;;5.50;;
75698;SDS011;64313;51.018;13.742;2022-10-16T06:15:16;7.53;;;5.07;;
75698;SDS011;64313;51.018;13.742;2022-10-16T06:17:41;8.37;;;5.13;;
75698;SDS011;64313;51.018;13.742;2022-10-16T06:20:06;7.55;;;4.80;;
75698;SDS011;64313;51.018;13.742;2022-10-16T06:22:32;7.25;;;5.07;;
75698;SDS011;64313;51.018;13.742;2022-10-16T06:24:57;8.03;;;4.73;;
75698;SDS011;64313;51.018;13.742;2022-10-16T06:27:22;7.40;;;4.60;;
75698;SDS011;64313;51.018;13.742;2022-10-16T06:29:47;6.83;;;4.60;;
75698;SDS011;64313;51.018;13.742;2022-10-16T06:32:13;7.40;;;4.43;;
75698;SDS011;64313;51.018;13.742;2022-10-16T06:34:38;6.17;;;3.90;;
75698;SDS011;64313;51.018;13.742;2022-10-16T06:37:05;6.82;;;4.57;;
75698;SDS011;64313;51.018;13.742;2022-10-16T06:39:30;7.55;;;4.43;;
75698;SDS011;64313;51.018;13.742;2022-10-16T06:41:55;6.63;;;4.27;;
75698;SDS011;64313;51.018;13.742;2022-10-16T06:44:20;6.70;;;4.22;;
75698;SDS011;64313;51.018;13.742;2022-10-16T06:46:46;6.35;;;4.03;;
75698;SDS011;64313;51.018;13.742;2022-10-16T06:49:11;6.77;;;4.07;;
75698;SDS011;64313;51.018;13.742;2022-10-16T06:51:36;8.10;;;4.37;;
75698;SDS011;64313;51.018;13.742;2022-10-16T06:54:05;6.78;;;4.43;;
75698;SDS011;64313;51.018;13.742;2022-10-16T06:56:31;6.72;;;4.10;;
75698;SDS011;64313;51.018;13.742;2022-10-16T06:58:58;6.60;;;4.18;;
75698;SDS011;64313;51.018;13.742;2022-10-16T07:01:24;8.02;;;4.80;;
75698;SDS011;64313;51.018;13.742;2022-10-16T07:03:50;6.45;;;4.25;;
75698;SDS011;64313;51.018;13.742;2022-10-16T07:06:16;7.30;;;4.88;;
75698;SDS011;64313;51.018;13.742;2022-10-16T07:08:44;6.97;;;4.80;;
75698;SDS011;64313;51.018;13.742;2022-10-16T07:11:11;9.52;;;4.68;;
75698;SDS011;64313;51.018;13.742;2022-10-16T07:13:39;7.50;;;4.85;;
75698;SDS011;64313;51.018;13.742;2022-10-16T07:16:06;7.07;;;4.30;;
75698;SDS011;64313;51.018;13.742;2022-10-16T07:18:33;7.80;;;4.88;;
75698;SDS011;64313;51.018;13.742;2022-10-16T07:21:03;7.07;;;4.70;;
75698;SDS011;64313;51.018;13.742;2022-10-16T07:23:32;7.40;;;4.93;;
75698;SDS011;64313;51.018;13.742;2022-10-16T07:25:58;8.30;;;4.95;;
75698;SDS011;64313;51.018;13.742;2022-10-16T07:28:23;7.97;;;5.20;;
75698;SDS011;64313;51.018;13.742;2022-10-16T07:30:48;8.43;;;5.40;;
75698;SDS011;64313;51.018;13.742;2022-10-16T07:33:13;8.48;;;5.35;;
75698;SDS011;64313;51.018;13.742;2022-10-16T07:35:47;7.97;;;5.72;;
75698;SDS011;64313;51.018;13.742;2022-10-16T07:38:13;8.38;;;6.05;;
75698;SDS011;64313;51.018;13.742;2022-10-16T07:40:38;7.80;;;5.43;;
75698;SDS011;64313;51.018;13.742;2022-10-16T07:43:03;7.50;;;5.20;;
75698;SDS011;64313;51.018;13.742;2022-10-16T07:45:30;8.07;;;5.47;;
75698;SDS011;64313;51.018;13.742;2022-10-16T07:47:55;8.30;;;5.60;;
75698;SDS011;64313;51.018;13.742;2022-10-16T07:50:20;10.03;;;6.10;;
75698;SDS011;64313;51.018;13.742;2022-10-16T07:52:46;9.70;;;5.37;;
75698;SDS011;64313;51.018;13.742;2022-10-16T07:55:11;8.30;;;5.93;;
75698;SDS011;64313;51.018;13.742;2022-10-16T07:57:36;7.73;;;5.10;;
75698;SDS011;64313;51.018;13.742;2022-10-16T08:00:02;7.60;;;5.57;;
75698;SDS011;64313;51.018;13.742;2022-10-16T08:02:27;9.98;;;5.95;;
75698;SDS011;64313;51.018;13.742;2022-10-16T08:04:52;8.13;;;6.10;;
75698;SDS011;64313;51.018;13.742;2022-10-16T08:07:18;8.83;;;6.30;;
75698;SDS011;64313;51.018;13.742;2022-10-16T08:09:43;11.37;;;7.27;;
75698;SDS011;64313;51.018;13.742;2022-10-16T08:12:08;10.33;;;7.27;;
75698;SDS011;64313;51.018;13.742;2022-10-16T08:14:35;10.88;;;7.50;;
75698;SDS011;64313;51.018;13.742;2022-10-16T08:17:01;9.75;;;7.25;;
75698;SDS011;64313;51.018;13.742;2022-10-16T08:19:27;10.40;;;8.00;;
75698;SDS011;64313;51.018;13.742;2022-10-16T08:21:52;11.20;;;7.70;;
75698;SDS011;64313;51.018;13.742;2022-10-16T08:24:17;15.13;;;8.17;;
75698;SDS011;64313;51.018;13.742;2022-10-16T08:26:43;11.30;;;7.70;;
75698;SDS011;64313;51.018;13.742;2022-10-16T08:29:08;10.38;;;7.35;;
75698;SDS011;64313;51.018;13.742;2022-10-16T08:31:33;10.70;;;7.53;;
75698;SDS011;64313;51.018;13.742;2022-10-16T08:33:58;9.80;;;7.33;;
75698;SDS011;64313;51.018;13.742;2022-10-16T08:36:24;9.27;;;6.73;;
75698;SDS011;64313;51.018;13.742;2022-10-16T08:38:49;9.70;;;7.38;;
75698;SDS011;64313;51.018;13.742;2022-10-16T08:49:40;9.45;;;7.20;;
75698;SDS011;64313;51.018;13.742;2022-10-16T08:52:10;10.48;;;8.13;;
75698;SDS011;64313;51.018;13.742;2022-10-16T08:54:41;9.63;;;7.22;;
75698;SDS011;64313;51.018;13.742;2022-10-16T08:57:16;10.27;;;7.32;;
75698;SDS011;64313;51.018;13.742;2022-10-16T08:59:44;9.68;;;7.22;;
75698;SDS011;64313;51.018;13.742;2022-10-16T09:02:18;9.13;;;7.03;;
75698;SDS011;64313;51.018;13.742;2022-10-16T09:04:48;9.02;;;6.72;;
75698;SDS011;64313;51.018;13.742;2022-10-16T09:07:22;8.70;;;6.82;;
75698;SDS011;64313;51.018;13.742;2022-10-16T09:10:07;10.15;;;7.32;;
75698;SDS011;64313;51.018;13.742;2022-10-16T09:12:42;10.90;;;8.35;;
75698;SDS011;64313;51.018;13.742;2022-10-16T09:15:25;11.70;;;7.57;;
75698;SDS011;64313;51.018;13.742;2022-10-16T09:20:56;10.98;;;8.10;;
75698;SDS011;64313;51.018;13.742;2022-10-16T09:23:29;10.27;;;7.82;;
75698;SDS011;64313;51.018;13.742;2022-10-16T09:25:56;11.57;;;8.45;;
75698;SDS011;64313;51.018;13.742;2022-10-16T09:28:23;11.85;;;7.72;;
75698;SDS011;64313;51.018;13.742;2022-10-16T09:30:49;10.55;;;7.70;;
75698;SDS011;64313;51.018;13.742;2022-10-16T09:33:15;10.35;;;7.43;;
75698;SDS011;64313;51.018;13.742;2022-10-16T09:35:45;9.93;;;7.85;;
75698;SDS011;64313;51.018;13.742;2022-10-16T09:38:24;10.63;;;8.23;;
75698;SDS011;64313;51.018;13.742;2022-10-16T09:40:53;11.52;;;7.18;;
75698;SDS011;64313;51.018;13.742;2022-10-16T09:43:26;9.50;;;7.18;;
75698;SDS011;64313;51.018;13.742;2022-10-16T09:45:56;9.20;;;7.00;;
75698;SDS011;64313;51.018;13.742;2022-10-16T09:48:25;10.25;;;7.20;;
75698;SDS011;64313;51.018;13.742;2022-10-16T09:51:02;9.45;;;7.13;;
75698;SDS011;64313;51.018;13.742;2022-10-16T09:53:45;9.27;;;7.40;;
75698;SDS011;64313;51.018;13.742;2022-10-16T09:56:12;7.03;;;5.25;;
75698;SDS011;64313;51.018;13.742;2022-10-16T09:58:54;8.48;;;5.65;;
75698;SDS011;64313;51.018;13.742;2022-10-16T10:01:21;7.75;;;5.60;;
75698;SDS011;64313;51.018;13.742;2022-10-16T10:03:49;8.32;;;5.00;;
75698;SDS011;64313;51.018;13.742;2022-10-16T10:06:25;6.07;;;4.53;;
75698;SDS011;64313;51.018;13.742;2022-10-16T10:09:26;6.57;;;2.55;;
75698;SDS011;64313;51.018;13.742;2022-10-16T10:11:57;3.17;;;1.50;;
75698;SDS011;64313;51.018;13.742;2022-10-16T10:14:34;3.08;;;1.20;;
75698;SDS011;64313;51.018;13.742;2022-10-16T10:19:36;2.60;;;0.90;;
75698;SDS011;64313;51.018;13.742;2022-10-16T10:27:29;2.10;;;0.90;;
75698;SDS011;64313;51.018;13.742;2022-10-16T10:30:06;2.03;;;0.60;;
75698;SDS011;64313;51.018;13.742;2022-10-16T10:32:53;1.75;;;0.73;;
75698;SDS011;64313;51.018;13.742;2022-10-16T10:47:07;2.05;;;0.77;;
75698;SDS011;64313;51.018;13.742;2022-10-16T11:00:52;2.33;;;0.80;;
75698;SDS011;64313;51.018;13.742;2022-10-16T11:03:40;2.15;;;0.90;;
75698;SDS011;64313;51.018;13.742;2022-10-16T11:06:21;3.10;;;0.98;;
75698;SDS011;64313;51.018;13.742;2022-10-16T11:09:02;2.03;;;0.80;;
75698;SDS011;64313;51.018;13.742;2022-10-16T11:11:38;1.92;;;0.82;;
75698;SDS011;64313;51.018;13.742;2022-10-16T11:16:55;1.55;;;0.70;;
75698;SDS011;64313;51.018;13.742;2022-10-16T11:22:21;1.33;;;0.60;;
75698;SDS011;64313;51.018;13.742;2022-10-16T11:27:39;0.77;;;0.47;;
75698;SDS011;64313;51.018;13.742;2022-10-16T11:30:29;1.77;;;0.70;;
75698;SDS011;64313;51.018;13.742;2022-10-16T11:35:41;1.30;;;0.60;;
75698;SDS011;64313;51.018;13.742;2022-10-16T11:38:43;1.42;;;0.52;;
75698;SDS011;64313;51.018;13.742;2022-10-16T11:41:35;1.92;;;0.60;;
75698;SDS011;64313;51.018;13.742;2022-10-16T11:44:43;2.15;;;0.90;;
75698;SDS011;64313;51.018;13.742;2022-10-16T11:47:08;2.00;;;0.60;;
75698;SDS011;64313;51.018;13.742;2022-10-16T11:49:40;1.67;;;0.65;;
75698;SDS011;64313;51.018;13.742;2022-10-16T11:52:20;0.80;;;0.50;;
75698;SDS011;64313;51.018;13.742;2022-10-16T11:57:33;0.85;;;0.57;;
75698;SDS011;64313;51.018;13.742;2022-10-16T12:00:05;1.38;;;0.60;;
75698;SDS011;64313;51.018;13.742;2022-10-16T12:10:50;0.98;;;0.52;;
75698;SDS011;64313;51.018;13.742;2022-10-16T12:13:28;2.55;;;0.68;;
75698;SDS011;64313;51.018;13.742;2022-10-16T12:16:04;1.38;;;0.60;;
75698;SDS011;64313;51.018;13.742;2022-10-16T12:18:36;1.52;;;0.60;;
75698;SDS011;64313;51.018;13.742;2022-10-16T12:21:01;1.17;;;0.52;;
75698;SDS011;64313;51.018;13.742;2022-10-16T12:23:32;2.20;;;0.60;;
75698;SDS011;64313;51.018;13.742;2022-10-16T12:26:01;0.63;;;0.40;;
75698;SDS011;64313;51.018;13.742;2022-10-16T12:28:28;1.48;;;0.70;;
75698;SDS011;64313;51.018;13.742;2022-10-16T12:30:57;1.63;;;0.60;;
75698;SDS011;64313;51.018;13.742;2022-10-16T12:33:31;1.00;;;0.57;;
75698;SDS011;64313;51.018;13.742;2022-10-16T12:35:59;1.65;;;0.70;;
75698;SDS011;64313;51.018;13.742;2022-10-16T12:38:28;1.42;;;0.60;;
75698;SDS011;64313;51.018;13.742;2022-10-16T12:41:04;1.33;;;0.68;;
75698;SDS011;64313;51.018;13.742;2022-10-16T12:48:34;1.17;;;0.55;;
75698;SDS011;64313;51.018;13.742;2022-10-16T13:08:42;2.45;;;0.65;;
75698;SDS011;64313;51.018;13.742;2022-10-16T13:11:31;1.73;;;0.68;;
75698;SDS011;64313;51.018;13.742;2022-10-16T13:23:04;1.30;;;0.55;;
75698;SDS011;64313;51.018;13.742;2022-10-16T13:28:22;3.20;;;0.60;;
75698;SDS011;64313;51.018;13.742;2022-10-16T13:30:54;1.70;;;0.70;;
75698;SDS011;64313;51.018;13.742;2022-10-16T13:33:36;2.47;;;0.63;;
75698;SDS011;64313;51.018;13.742;2022-10-16T13:36:04;2.17;;;0.73;;
75698;SDS011;64313;51.018;13.742;2022-10-16T13:38:34;1.80;;;0.80;;
75698;SDS011;64313;51.018;13.742;2022-10-16T13:48:40;1.40;;;0.60;;
75698;SDS011;64313;51.018;13.742;2022-10-16T13:51:16;2.22;;;0.80;;
75698;SDS011;64313;51.018;13.742;2022-10-16T13:53:43;1.70;;;0.68;;
75698;SDS011;64313;51.018;13.742;2022-10-16T13:56:11;2.13;;;0.60;;
75698;SDS011;64313;51.018;13.742;2022-10-16T14:03:43;2.03;;;0.70;;
75698;SDS011;64313;51.018;13.742;2022-10-16T14:06:11;2.40;;;0.60;;
75698;SDS011;64313;51.018;13.742;2022-10-16T14:08:41;1.25;;;0.60;;
75698;SDS011;64313;51.018;13.742;2022-10-16T14:11:09;1.98;;;0.70;;
75698;SDS011;64313;51.018;13.742;2022-10-16T14:13:39;2.08;;;0.60;;
75698;SDS011;64313;51.018;13.742;2022-10-16T14:16:09;1.42;;;0.70;;
75698;SDS011;64313;51.018;13.742;2022-10-16T14:18:41;1.17;;;0.70;;
75698;SDS011;64313;51.018;13.742;2022-10-16T14:21:12;2.63;;;0.90;;
75698;SDS011;64313;51.018;13.742;2022-10-16T14:23:40;1.08;;;0.60;;
75698;SDS011;64313;51.018;13.742;2022-10-16T14:26:11;1.45;;;0.80;;
75698;SDS011;64313;51.018;13.742;2022-10-16T14:28:41;2.05;;;0.90;;
75698;SDS011;64313;51.018;13.742;2022-10-16T14:33:44;1.70;;;0.80;;
75698;SDS011;64313;51.018;13.742;2022-10-16T14:38:35;2.67;;;0.90;;
75698;SDS011;64313;51.018;13.742;2022-10-16T14:41:03;1.67;;;0.65;;
75698;SDS011;64313;51.018;13.742;2022-10-16T14:48:42;2.50;;;0.68;;
75698;SDS011;64313;51.018;13.742;2022-10-16T14:51:14;2.30;;;1.00;;
75698;SDS011;64313;51.018;13.742;2022-10-16T14:53:40;1.77;;;0.65;;
75698;SDS011;64313;51.018;13.742;2022-10-16T14:56:06;3.10;;;0.80;;
75698;SDS011;64313;51.018;13.742;2022-10-16T14:58:33;1.48;;;0.73;;
75698;SDS011;64313;51.018;13.742;2022-10-16T15:00:59;2.00;;;0.80;;
75698;SDS011;64313;51.018;13.742;2022-10-16T15:03:25;1.17;;;0.60;;
75698;SDS011;64313;51.018;13.742;2022-10-16T15:05:50;2.10;;;0.77;;
75698;SDS011;64313;51.018;13.742;2022-10-16T15:08:15;1.70;;;0.70;;
75698;SDS011;64313;51.018;13.742;2022-10-16T15:10:42;1.92;;;0.60;;
75698;SDS011;64313;51.018;13.742;2022-10-16T15:13:11;2.80;;;0.80;;
75698;SDS011;64313;51.018;13.742;2022-10-16T15:15:39;3.10;;;0.80;;
75698;SDS011;64313;51.018;13.742;2022-10-16T15:18:08;1.98;;;0.80;;
75698;SDS011;64313;51.018;13.742;2022-10-16T15:20:34;2.15;;;0.90;;
75698;SDS011;64313;51.018;13.742;2022-10-16T15:23:05;1.77;;;0.80;;
75698;SDS011;64313;51.018;13.742;2022-10-16T15:25:38;2.75;;;0.80;;
75698;SDS011;64313;51.018;13.742;2022-10-16T15:28:09;3.05;;;0.90;;
75698;SDS011;64313;51.018;13.742;2022-10-16T15:30:35;1.52;;;0.70;;
75698;SDS011;64313;51.018;13.742;2022-10-16T15:33:02;2.72;;;0.90;;
75698;SDS011;64313;51.018;13.742;2022-10-16T15:35:28;2.95;;;1.00;;
75698;SDS011;64313;51.018;13.742;2022-10-16T15:37:53;3.55;;;1.30;;
75698;SDS011;64313;51.018;13.742;2022-10-16T15:40:19;3.50;;;1.30;;
75698;SDS011;64313;51.018;13.742;2022-10-16T15:42:44;3.08;;;1.20;;
75698;SDS011;64313;51.018;13.742;2022-10-16T15:45:10;4.80;;;1.45;;
75698;SDS011;64313;51.018;13.742;2022-10-16T15:47:37;2.92;;;1.38;;
75698;SDS011;64313;51.018;13.742;2022-10-16T15:50:02;3.67;;;1.40;;
75698;SDS011;64313;51.018;13.742;2022-10-16T15:52:28;4.05;;;1.60;;
75698;SDS011;64313;51.018;13.742;2022-10-16T15:54:56;3.75;;;1.48;;
75698;SDS011;64313;51.018;13.742;2022-10-16T15:57:22;4.18;;;1.40;;
75698;SDS011;64313;51.018;13.742;2022-10-16T15:59:48;3.20;;;1.35;;
75698;SDS011;64313;51.018;13.742;2022-10-16T16:02:13;3.88;;;1.50;;
75698;SDS011;64313;51.018;13.742;2022-10-16T16:04:39;3.63;;;1.30;;
75698;SDS011;64313;51.018;13.742;2022-10-16T16:07:04;3.40;;;1.40;;
75698;SDS011;64313;51.018;13.742;2022-10-16T16:09:32;4.28;;;1.30;;
75698;SDS011;64313;51.018;13.742;2022-10-16T16:11:57;2.88;;;1.15;;
75698;SDS011;64313;51.018;13.742;2022-10-16T16:14:25;3.50;;;1.30;;
75698;SDS011;64313;51.018;13.742;2022-10-16T16:16:52;3.70;;;1.33;;
75698;SDS011;64313;51.018;13.742;2022-10-16T16:19:18;3.78;;;1.60;;
75698;SDS011;64313;51.018;13.742;2022-10-16T16:21:45;3.42;;;1.30;;
75698;SDS011;64313;51.018;13.742;2022-10-16T16:24:11;4.50;;;1.40;;
75698;SDS011;64313;51.018;13.742;2022-10-16T16:26:36;4.13;;;1.60;;
75698;SDS011;64313;51.018;13.742;2022-10-16T16:29:04;4.28;;;1.50;;
75698;SDS011;64313;51.018;13.742;2022-10-16T16:31:31;3.55;;;1.42;;
75698;SDS011;64313;51.018;13.742;2022-10-16T16:33:58;5.07;;;1.80;;
75698;SDS011;64313;51.018;13.742;2022-10-16T16:36:24;4.40;;;1.80;;
75698;SDS011;64313;51.018;13.742;2022-10-16T16:38:50;3.92;;;1.60;;
75698;SDS011;64313;51.018;13.742;2022-10-16T16:41:17;5.03;;;1.70;;
75698;SDS011;64313;51.018;13.742;2022-10-16T16:43:46;3.83;;;1.60;;
75698;SDS011;64313;51.018;13.742;2022-10-16T16:46:12;6.43;;;1.77;;
75698;SDS011;64313;51.018;13.742;2022-10-16T16:48:38;5.00;;;1.80;;
75698;SDS011;64313;51.018;13.742;2022-10-16T16:51:07;4.57;;;1.80;;
75698;SDS011;64313;51.018;13.742;2022-10-16T16:53:41;4.43;;;1.92;;
75698;SDS011;64313;51.018;13.742;2022-10-16T16:56:08;4.63;;;2.00;;